Time;durP1;ratioP1;P1;durP2;ratioP2;P2;SDS_P1;SDS_P2;PMS_P1;PMS_P2;Temp;Humidity;BMP_temperature;BMP_pressure;BME280_temperature;BME280_humidity;BME280_pressure;Samples;Min_cycle;Max_cycle;Signal;HPM_P1;HPM_P2
2022/07/15 00:00:45;;;;;;;22.57;11.90;;;;;;;35.64;45.38;101143.59;6215028;23;20383;-68
2022/07/15 00:03:11;;;;;;;52.40;20.40;;;;;;;35.85;45.47;101138.00;6213236;23;20387;-70
2022/07/15 00:05:38;;;;;;;29.30;13.80;;;;;;;35.83;45.12;101141.00;6215321;23;20371;-71
2022/07/15 00:08:04;;;;;;;33.43;13.70;;;;;;;35.80;45.14;101141.59;6238287;23;20931;-70
2022/07/15 00:10:30;;;;;;;31.00;13.80;;;;;;;35.84;44.98;101136.41;6212915;23;20840;-69
2022/07/15 00:12:59;;;;;;;47.67;15.67;;;;;;;35.89;44.72;101133.66;6238255;23;20911;-69
2022/07/15 00:15:30;;;;;;;31.60;17.20;;;;;;;35.87;44.97;101133.97;6215064;23;20356;-68
2022/07/15 00:18:01;;;;;;;33.20;13.17;;;;;;;35.87;44.70;101125.84;6188088;23;20390;-69
2022/07/15 00:20:33;;;;;;;29.90;12.03;;;;;;;35.99;44.33;101123.59;6238186;23;20383;-69
2022/07/15 00:23:01;;;;;;;26.63;13.13;;;;;;;35.68;44.89;101133.88;6213118;23;20371;-69
2022/07/15 00:25:27;;;;;;;34.23;16.10;;;;;;;35.64;45.45;101126.63;6212938;23;20380;-69
2022/07/15 00:27:56;;;;;;;32.10;11.37;;;;;;;35.82;44.51;101130.50;6215039;23;20360;-71
2022/07/15 00:30:22;;;;;;;35.43;17.10;;;;;;;35.64;44.84;101132.81;6238113;23;20462;-69
2022/07/15 00:32:50;;;;;;;26.47;12.00;;;;;;;35.70;44.89;101128.19;6214862;23;20403;-70
2022/07/15 00:35:16;;;;;;;27.17;12.30;;;;;;;35.82;45.26;101128.59;6214994;23;20383;-68
2022/07/15 00:37:42;;;;;;;28.67;13.73;;;;;;;35.93;44.91;101129.34;6238207;23;20406;-69
2022/07/15 00:40:09;;;;;;;34.50;13.17;;;;;;;36.08;44.17;101118.38;6212932;23;20386;-69
2022/07/15 00:42:44;;;;;;;27.07;12.63;;;;;;;36.03;44.31;101116.56;6214588;23;20430;-68
2022/07/15 00:45:20;;;;;;;24.47;14.43;;;;;;;35.90;44.84;101121.78;6238582;23;20375;-69
2022/07/15 00:47:51;;;;;;;36.80;15.10;;;;;;;35.78;45.41;101120.25;6216586;23;20823;-69
2022/07/15 00:50:18;;;;;;;48.77;16.80;;;;;;;35.88;44.92;101113.97;6239983;23;20371;-69
2022/07/15 00:52:54;;;;;;;32.93;16.30;;;;;;;35.94;44.63;101114.75;6239731;23;20774;-69
2022/07/15 00:55:22;;;;;;;34.07;16.03;;;;;;;35.75;45.52;101118.13;6214642;23;20379;-69
2022/07/15 00:57:55;;;;;;;32.03;14.03;;;;;;;35.64;44.79;101102.34;6214276;23;20513;-69
2022/07/15 01:00:21;;;;;;;30.50;14.57;;;;;;;35.64;45.28;101110.44;6214518;23;20848;-69
2022/07/15 01:02:50;;;;;;;23.53;13.47;;;;;;;35.53;45.07;101104.31;6214680;23;20371;-69
2022/07/15 01:05:19;;;;;;;27.03;12.03;;;;;;;35.38;45.39;101113.31;6239780;23;20394;-69
2022/07/15 01:07:46;;;;;;;28.63;12.00;;;;;;;35.29;46.16;101106.91;6216594;23;20355;-69
2022/07/15 01:10:12;;;;;;;25.00;14.90;;;;;;;35.31;45.63;101102.06;6216428;23;20363;-68
2022/07/15 01:12:40;;;;;;;35.03;16.40;;;;;;;35.46;45.79;101115.44;6214418;23;20419;-69
2022/07/15 01:15:08;;;;;;;24.90;13.77;;;;;;;35.40;45.88;101110.34;6214816;23;20399;-69
2022/07/15 01:17:34;;;;;;;29.20;15.03;;;;;;;35.38;44.93;101115.22;6214378;23;20419;-69
2022/07/15 01:20:01;;;;;;;32.20;15.37;;;;;;;35.54;45.11;101105.91;6240324;23;20415;-69
2022/07/15 01:22:27;;;;;;;27.10;13.23;;;;;;;35.58;45.36;101109.66;6189482;23;20375;-69
2022/07/15 01:24:53;;;;;;;29.60;15.13;;;;;;;35.58;45.35;101116.97;6189523;23;20394;-69
2022/07/15 01:27:20;;;;;;;34.30;15.40;;;;;;;35.60;45.19;101110.19;6214235;23;20847;-70
2022/07/15 01:29:46;;;;;;;29.30;12.60;;;;;;;35.62;45.77;101099.13;6216453;23;20356;-70
2022/07/15 01:32:12;;;;;;;28.00;15.20;;;;;;;35.57;45.47;101102.66;6214647;23;20538;-71
2022/07/15 01:34:39;;;;;;;30.53;15.53;;;;;;;35.45;45.33;101107.63;6214076;23;20394;-70
2022/07/15 01:37:07;;;;;;;30.93;16.50;;;;;;;35.55;44.80;101095.94;6214315;23;20380;-70
2022/07/15 01:39:33;;;;;;;45.07;15.83;;;;;;;35.60;44.96;101096.69;6239441;23;20402;-71
2022/07/15 01:41:59;;;;;;;33.60;16.03;;;;;;;35.46;45.60;101082.25;6239487;23;20378;-70
2022/07/15 01:44:25;;;;;;;22.37;11.20;;;;;;;35.52;45.76;101081.13;6214179;23;20371;-70
2022/07/15 01:46:51;;;;;;;33.10;16.70;;;;;;;35.41;45.53;101098.44;6239232;23;20463;-70
2022/07/15 01:49:29;;;;;;;27.53;16.07;;;;;;;35.31;45.86;101093.97;6239364;23;20372;-71
2022/07/15 01:51:57;;;;;;;31.87;16.30;;;;;;;35.18;46.31;101091.91;6239284;23;20450;-71
2022/07/15 01:54:25;;;;;;;40.77;16.67;;;;;;;35.24;46.12;101094.28;6214059;23;20367;-71
2022/07/15 01:56:52;;;;;;;35.17;14.57;;;;;;;35.47;45.44;101092.75;6239547;22;20406;-71
2022/07/15 01:59:22;;;;;;;32.27;15.50;;;;;;;35.43;45.39;101094.44;6246190;23;20835;-70
2022/07/15 02:01:49;;;;;;;40.17;16.03;;;;;;;35.67;45.18;101090.97;6244295;23;20363;-69
2022/07/15 02:04:15;;;;;;;35.80;15.00;;;;;;;35.78;44.74;101089.75;6244054;23;20461;-68
2022/07/15 02:06:42;;;;;;;27.13;15.50;;;;;;;35.70;44.53;101087.69;6219062;23;20402;-70
2022/07/15 02:09:08;;;;;;;22.77;11.70;;;;;;;35.57;44.64;101091.88;6244122;23;20402;-70
2022/07/15 02:11:35;;;;;;;37.93;16.50;;;;;;;35.63;44.30;101092.63;6244046;23;20589;-69
2022/07/15 02:14:02;;;;;;;37.97;14.33;;;;;;;35.57;44.42;101091.06;6219020;23;20375;-70
2022/07/15 02:16:32;;;;;;;24.73;13.67;;;;;;;35.50;45.38;101089.50;6218679;23;20402;-69
2022/07/15 02:18:59;;;;;;;27.33;14.13;;;;;;;35.25;45.96;101089.69;6216933;23;20375;-69
2022/07/15 02:21:28;;;;;;;35.77;16.30;;;;;;;35.41;45.14;101093.84;6243457;23;20461;-69
2022/07/15 02:23:55;;;;;;;39.00;17.53;;;;;;;35.60;45.05;101093.19;6243853;23;20402;-70
2022/07/15 02:26:21;;;;;;;27.80;14.97;;;;;;;35.77;45.14;101093.56;6218854;23;20416;-70
2022/07/15 02:28:48;;;;;;;26.00;13.40;;;;;;;35.65;45.05;101093.13;6244025;23;20918;-69
2022/07/15 02:31:14;;;;;;;22.80;13.13;;;;;;;35.58;44.95;101095.38;6243860;23;20414;-69
2022/07/15 02:33:44;;;;;;;35.77;17.07;;;;;;;35.39;45.35;101097.94;6243879;23;20378;-69
2022/07/15 02:36:10;;;;;;;28.97;14.90;;;;;;;35.53;45.67;101085.41;6244055;23;20385;-69
2022/07/15 02:38:37;;;;;;;30.33;14.63;;;;;;;35.44;45.32;101087.13;6245647;23;20351;-70
2022/07/15 02:41:04;;;;;;;28.00;15.07;;;;;;;35.48;44.95;101080.91;6245960;23;20351;-70
2022/07/15 02:43:30;;;;;;;33.17;15.73;;;;;;;35.32;45.12;101079.38;6219222;23;20737;-70
2022/07/15 02:45:56;;;;;;;26.53;14.10;;;;;;;35.24;45.18;101082.69;6243609;23;20998;-70
2022/07/15 02:48:22;;;;;;;31.33;14.00;;;;;;;35.30;45.39;101076.19;6218703;23;20834;-69
2022/07/15 02:50:49;;;;;;;35.13;12.60;;;;;;;35.47;45.05;101076.56;6243577;23;20874;-70
2022/07/15 02:53:16;;;;;;;35.90;13.93;;;;;;;35.48;45.43;101071.97;6243887;23;20458;-69
2022/07/15 02:55:42;;;;;;;28.50;15.67;;;;;;;35.28;45.41;101086.41;6243807;23;20516;-69
2022/07/15 02:58:08;;;;;;;20.97;15.13;;;;;;;35.38;45.09;101070.16;6238455;22;20450;-69
2022/07/15 03:00:35;;;;;;;29.53;13.80;;;;;;;35.38;45.18;101080.16;6188566;23;20402;-70
2022/07/15 03:03:01;;;;;;;33.70;14.47;;;;;;;35.32;45.72;101065.91;6213335;23;20403;-70
2022/07/15 03:05:27;;;;;;;56.10;17.17;;;;;;;35.51;45.18;101087.59;6213421;23;20727;-70
2022/07/15 03:07:53;;;;;;;43.03;14.57;;;;;;;35.54;45.20;101084.31;6238344;23;20399;-70
2022/07/15 03:10:19;;;;;;;27.57;14.33;;;;;;;35.74;44.80;101088.75;6238285;23;20389;-69
2022/07/15 03:12:46;;;;;;;31.53;13.43;;;;;;;35.55;45.22;101085.16;6213834;23;20418;-69
2022/07/15 03:15:12;;;;;;;33.37;14.70;;;;;;;35.46;45.15;101090.34;6238531;23;20379;-69
2022/07/15 03:17:42;;;;;;;31.10;14.83;;;;;;;35.83;44.66;101091.63;6215473;23;20834;-70
2022/07/15 03:20:10;;;;;;;24.93;13.30;;;;;;;35.64;44.89;101089.63;6213959;23;20363;-69
2022/07/15 03:22:36;;;;;;;40.73;15.83;;;;;;;35.53;44.84;101088.13;6238503;23;20465;-70
2022/07/15 03:25:02;;;;;;;29.63;14.23;;;;;;;35.43;45.31;101094.44;6215396;23;20352;-70
2022/07/15 03:27:29;;;;;;;30.93;14.33;;;;;;;35.60;44.67;101088.59;6213109;23;20474;-71
2022/07/15 03:29:55;;;;;;;42.77;14.57;;;;;;;35.61;44.67;101078.63;6213321;23;20411;-70
2022/07/15 03:32:21;;;;;;;35.93;16.47;;;;;;;35.68;44.63;101090.69;6238480;23;20957;-69
2022/07/15 03:34:48;;;;;;;28.37;15.00;;;;;;;35.79;44.70;101094.09;6238428;23;20848;-68
2022/07/15 03:37:15;;;;;;;36.97;12.97;;;;;;;35.68;45.03;101093.38;6238398;23;20379;-69
2022/07/15 03:39:41;;;;;;;31.03;14.80;;;;;;;35.58;44.76;101088.06;6213104;23;20399;-69
2022/07/15 03:42:07;;;;;;;28.57;13.90;;;;;;;35.60;44.83;101093.97;6215117;23;20376;-69
2022/07/15 03:44:33;;;;;;;33.80;17.40;;;;;;;35.80;44.65;101093.00;6238442;23;20480;-68
2022/07/15 03:47:00;;;;;;;28.63;13.67;;;;;;;35.76;45.40;101091.97;6238261;23;20493;-69
2022/07/15 03:49:26;;;;;;;34.73;14.47;;;;;;;35.85;45.10;101087.56;6213147;23;20709;-69
2022/07/15 03:51:52;;;;;;;41.47;15.00;;;;;;;35.80;45.01;101098.41;6238171;23;20818;-69
2022/07/15 03:54:18;;;;;;;31.00;17.23;;;;;;;35.50;44.99;101094.91;6213291;23;20386;-69
2022/07/15 03:56:47;;;;;;;31.07;17.00;;;;;;;35.61;44.51;101098.31;6238964;22;20498;-69
2022/07/15 03:59:14;;;;;;;37.37;14.17;;;;;;;35.64;45.23;101092.34;6212865;23;20427;-69
2022/07/15 04:01:41;;;;;;;46.07;17.67;;;;;;;35.70;45.14;101104.69;6213107;23;20849;-69
2022/07/15 04:04:08;;;;;;;31.73;16.23;;;;;;;35.49;45.22;101101.38;6213282;23;20402;-69
2022/07/15 04:06:35;;;;;;;31.03;15.00;;;;;;;35.60;44.63;101103.97;6238327;23;20403;-69
2022/07/15 04:09:01;;;;;;;37.20;15.10;;;;;;;35.60;44.51;101104.78;6213079;23;20383;-69
2022/07/15 04:11:27;;;;;;;26.83;14.20;;;;;;;35.62;44.88;101108.03;6212850;23;20430;-69
2022/07/15 04:13:54;;;;;;;28.10;15.63;;;;;;;35.37;45.47;101106.31;6238071;23;20457;-70
2022/07/15 04:16:20;;;;;;;29.90;14.10;;;;;;;35.40;44.92;101104.94;6214156;23;20407;-69
2022/07/15 04:18:46;;;;;;;22.20;13.10;;;;;;;35.63;44.68;101103.41;6238218;23;20403;-70
2022/07/15 04:21:12;;;;;;;32.40;15.77;;;;;;;35.76;44.70;101108.16;6239874;23;20376;-70
2022/07/15 04:23:38;;;;;;;34.37;17.50;;;;;;;35.52;44.48;101108.09;6239982;23;20418;-70
2022/07/15 04:26:05;;;;;;;27.37;13.70;;;;;;;35.64;44.97;101110.44;6215428;23;20360;-68
2022/07/15 04:28:31;;;;;;;31.47;13.60;;;;;;;35.72;44.93;101107.09;6240063;23;20383;-70
2022/07/15 04:30:57;;;;;;;29.63;15.50;;;;;;;35.85;44.32;101111.03;6239932;23;20474;-69
2022/07/15 04:33:23;;;;;;;30.57;14.37;;;;;;;35.84;44.53;101107.53;6240154;23;20386;-69
2022/07/15 04:35:49;;;;;;;32.17;13.87;;;;;;;35.82;44.63;101108.91;6216760;23;20355;-69
2022/07/15 04:38:15;;;;;;;22.43;14.00;;;;;;;35.87;44.70;101114.25;6239992;23;20402;-69
2022/07/15 04:40:42;;;;;;;32.40;14.90;;;;;;;35.89;44.72;101118.25;6239967;23;20383;-69
2022/07/15 04:43:09;;;;;;;27.63;15.37;;;;;;;35.79;44.71;101123.78;6216660;23;20734;-70
2022/07/15 04:45:35;;;;;;;28.60;14.03;;;;;;;35.65;44.65;101120.13;6214789;23;20734;-71
2022/07/15 04:50:45;;;;;;;29.20;13.53;;;;;;;35.77;44.65;101124.06;6214673;23;20821;-69
2022/07/15 04:50:51;;;;;;;37.43;16.97;;;;;;;35.91;44.07;101131.47;6216120;23;20366;-69
2022/07/15 04:53:19;;;;;;;26.17;13.77;;;;;;;35.80;44.74;101125.41;6216651;23;20804;-70
2022/07/15 04:55:46;;;;;;;25.70;14.47;;;;;;;35.87;44.21;101130.44;6215070;23;20415;-69
2022/07/15 04:58:14;;;;;;;32.13;11.83;;;;;;;35.80;44.47;101128.91;6214676;23;20509;-69
2022/07/15 05:00:45;;;;;;;35.87;14.17;;;;;;;35.93;44.63;101121.25;6239931;23;20379;-69
2022/07/15 05:03:11;;;;;;;33.17;15.83;;;;;;;35.79;44.53;101121.09;6239676;23;20836;-68
2022/07/15 05:05:37;;;;;;;29.17;12.47;;;;;;;35.79;44.76;101123.78;6239661;23;20785;-69
2022/07/15 05:08:04;;;;;;;41.30;16.43;;;;;;;35.76;44.09;101127.03;6239868;23;20953;-70
2022/07/15 05:10:30;;;;;;;28.53;14.03;;;;;;;35.80;44.96;101120.78;6214360;23;20383;-70
2022/07/15 05:12:57;;;;;;;36.77;16.67;;;;;;;35.93;44.52;101132.03;6214470;23;20419;-70
2022/07/15 05:15:23;;;;;;;33.13;13.50;;;;;;;35.99;44.44;101139.00;6216262;23;20824;-69
2022/07/15 05:17:50;;;;;;;24.77;11.37;;;;;;;36.10;44.32;101137.00;6240143;23;20376;-69
2022/07/15 05:20:16;;;;;;;32.20;14.93;;;;;;;36.00;43.65;101136.00;6214387;23;20433;-69
2022/07/15 05:22:42;;;;;;;32.83;15.40;;;;;;;35.98;44.33;101140.91;6239585;23;20375;-69
2022/07/15 05:25:08;;;;;;;26.23;15.10;;;;;;;35.85;44.65;101130.75;6214397;23;20387;-68
2022/07/15 05:27:35;;;;;;;34.23;16.17;;;;;;;35.76;44.41;101141.34;6214328;23;20389;-69
2022/07/15 05:30:01;;;;;;;37.13;15.03;;;;;;;35.92;44.18;101128.53;6216229;23;20377;-70
2022/07/15 05:32:27;;;;;;;45.47;15.13;;;;;;;35.75;44.68;101134.34;6213422;23;20416;-68
2022/07/15 05:34:54;;;;;;;27.80;15.13;;;;;;;35.90;44.87;101129.88;6239546;23;20398;-68
2022/07/15 05:37:20;;;;;;;29.00;14.70;;;;;;;35.72;44.49;101140.28;6215923;23;20388;-70
2022/07/15 05:39:58;;;;;;;29.60;13.40;;;;;;;35.90;44.45;101137.97;6239065;23;20403;-70
2022/07/15 05:42:24;;;;;;;28.30;12.47;;;;;;;35.97;44.82;101133.91;6239171;23;20906;-71
2022/07/15 05:44:51;;;;;;;38.87;17.63;;;;;;;35.97;44.52;101136.59;6213740;23;20375;-70
2022/07/15 05:47:17;;;;;;;31.70;15.77;;;;;;;35.78;44.30;101139.16;6239180;23;20403;-70
2022/07/15 05:49:43;;;;;;;33.73;16.70;;;;;;;35.85;44.70;101138.84;6239255;23;20399;-71
2022/07/15 05:52:09;;;;;;;36.97;16.57;;;;;;;35.92;44.46;101143.94;6215837;23;20403;-70
2022/07/15 05:54:37;;;;;;;28.63;13.20;;;;;;;35.95;44.88;101136.06;6239418;23;20414;-70
2022/07/15 05:57:03;;;;;;;41.57;16.70;;;;;;;35.98;44.14;101140.91;6241756;22;20414;-71
2022/07/15 05:59:31;;;;;;;37.90;15.17;;;;;;;35.97;44.92;101138.47;6213996;23;20431;-71
2022/07/15 06:01:58;;;;;;;44.53;15.00;;;;;;;36.01;44.46;101139.50;6214215;23;20419;-69
2022/07/15 06:04:27;;;;;;;32.47;12.67;;;;;;;35.98;44.56;101132.00;6189093;23;20384;-69
2022/07/15 06:06:54;;;;;;;32.47;17.47;;;;;;;36.00;44.50;101141.41;6214711;23;20405;-72
2022/07/15 06:09:21;;;;;;;36.37;17.40;;;;;;;35.85;44.44;101165.84;6213756;23;20402;-71
2022/07/15 06:11:48;;;;;;;30.87;15.03;;;;;;;35.68;44.80;101152.75;6213330;23;20425;-69
2022/07/15 06:14:14;;;;;;;25.33;12.70;;;;;;;35.77;44.54;101155.63;6237160;23;20410;-72
2022/07/15 06:16:40;;;;;;;26.60;13.83;;;;;;;35.85;44.67;101165.84;6238892;23;20375;-73
2022/07/15 06:19:08;;;;;;;44.73;19.47;;;;;;;35.89;44.67;101166.84;6215407;23;20360;-72
2022/07/15 06:21:35;;;;;;;24.53;14.20;;;;;;;35.85;44.75;101165.84;6213627;23;20384;-70
2022/07/15 06:24:01;;;;;;;27.10;13.00;;;;;;;35.76;44.07;101164.81;6213450;23;20470;-69
2022/07/15 06:26:28;;;;;;;35.23;16.93;;;;;;;35.63;44.50;101162.78;6238778;23;20749;-68
2022/07/15 06:28:54;;;;;;;33.83;17.40;;;;;;;35.71;44.17;101170.25;6213614;23;20486;-70
2022/07/15 06:31:21;;;;;;;27.83;15.60;;;;;;;35.61;44.44;101175.78;6213683;23;20430;-69
2022/07/15 06:33:47;;;;;;;31.97;15.50;;;;;;;35.48;44.93;101171.78;6212577;23;20394;-71
2022/07/15 06:36:13;;;;;;;37.90;20.60;;;;;;;35.57;44.57;101166.63;6236479;23;20406;-70
2022/07/15 06:38:39;;;;;;;35.13;16.03;;;;;;;35.72;44.68;101174.56;6214019;23;20394;-71
2022/07/15 06:41:06;;;;;;;26.53;15.03;;;;;;;35.93;44.36;101167.94;6186496;23;20367;-71
2022/07/15 06:43:32;;;;;;;37.23;13.57;;;;;;;35.98;44.05;101177.91;6214184;23;20425;-73
2022/07/15 06:45:58;;;;;;;33.40;15.30;;;;;;;35.97;44.28;101177.09;6214744;23;20378;-71
2022/07/15 06:48:25;;;;;;;38.80;15.83;;;;;;;35.68;44.63;101177.03;6186464;23;20910;-70
2022/07/15 06:50:51;;;;;;;25.27;15.30;;;;;;;35.67;44.41;101171.94;6236632;23;20380;-71
2022/07/15 06:53:17;;;;;;;27.77;16.70;;;;;;;35.63;44.62;101179.78;6236343;23;20450;-71
2022/07/15 06:55:43;;;;;;;37.30;17.00;;;;;;;35.71;44.92;101186.47;6236443;23;20379;-71
2022/07/15 06:58:09;;;;;;;31.77;16.27;;;;;;;35.67;45.31;101191.63;6236241;22;20510;-71
2022/07/15 07:00:35;;;;;;;39.67;18.90;;;;;;;35.78;45.20;101189.63;6236561;23;20379;-71
2022/07/15 07:03:01;;;;;;;38.07;15.13;;;;;;;35.78;44.90;101195.03;6237617;23;20426;-69
2022/07/15 07:05:27;;;;;;;36.50;16.97;;;;;;;35.76;45.08;101194.50;6238701;23;20390;-70
2022/07/15 07:07:54;;;;;;;30.77;17.10;;;;;;;35.88;44.75;101199.53;6214066;23;20437;-70
2022/07/15 07:10:20;;;;;;;37.57;13.60;;;;;;;35.84;44.80;101207.38;6238637;23;20434;-70
2022/07/15 07:12:46;;;;;;;39.93;16.90;;;;;;;35.96;44.64;101212.44;6214837;23;20414;-71
2022/07/15 07:15:12;;;;;;;23.30;14.93;;;;;;;35.72;45.08;101217.75;6188348;23;20390;-71
2022/07/15 07:17:39;;;;;;;35.73;14.23;;;;;;;35.75;44.81;101217.19;6238551;23;20375;-71
2022/07/15 07:20:05;;;;;;;28.87;14.70;;;;;;;35.87;44.33;101228.44;6213459;23;20352;-71
2022/07/15 07:22:31;;;;;;;38.63;14.40;;;;;;;35.75;44.92;101226.09;6238401;23;20375;-69
2022/07/15 07:24:59;;;;;;;44.77;17.33;;;;;;;35.72;44.89;101229.34;6238567;23;20381;-72
2022/07/15 07:27:25;;;;;;;40.67;15.43;;;;;;;35.78;44.95;101240.91;6213911;23;20355;-71
2022/07/15 07:29:52;;;;;;;28.13;13.03;;;;;;;35.79;45.09;101229.06;6213217;23;20457;-70
2022/07/15 07:32:18;;;;;;;38.40;14.83;;;;;;;35.87;44.71;101241.13;6238367;23;20926;-69
2022/07/15 07:34:44;;;;;;;24.23;12.97;;;;;;;35.94;44.57;101244.34;6238623;23;20699;-69
2022/07/15 07:37:10;;;;;;;39.73;15.73;;;;;;;35.98;44.42;101240.78;6238765;23;20387;-71
2022/07/15 07:39:36;;;;;;;31.97;16.80;;;;;;;35.90;44.90;101240.56;6213323;23;20411;-71
2022/07/15 07:42:03;;;;;;;39.07;16.43;;;;;;;35.97;44.50;101243.75;6213034;23;20702;-72
2022/07/15 07:44:29;;;;;;;33.40;16.10;;;;;;;35.99;44.52;101241.59;6238519;23;20441;-71
2022/07/15 07:46:55;;;;;;;23.73;16.10;;;;;;;35.87;44.32;101247.34;6238421;23;20407;-69
2022/07/15 07:49:21;;;;;;;35.47;14.30;;;;;;;35.94;44.64;101253.25;6213209;23;20380;-69
2022/07/15 07:51:47;;;;;;;35.03;17.07;;;;;;;35.95;45.12;101248.63;6212993;23;20759;-71
2022/07/15 07:54:14;;;;;;;28.23;14.37;;;;;;;35.82;44.84;101258.16;6212988;23;20441;-72
